createdAt,value
2017-10-24T00:00:23.942Z,14.25
2017-10-24T00:05:25.892Z,14.13
2017-10-24T00:10:27.816Z,14.01
2017-10-24T00:15:30.623Z,13.92
2017-10-24T00:20:32.598Z,13.77
2017-10-24T00:25:34.556Z,13.69
2017-10-24T00:30:36.505Z,13.67
2017-10-24T00:35:38.424Z,13.79
2017-10-24T00:40:41.413Z,13.82
2017-10-24T00:45:43.383Z,13.86
2017-10-24T00:50:46.102Z,13.94
2017-10-24T00:55:48.124Z,13.89
2017-10-24T01:00:50.863Z,13.77
2017-10-24T01:05:53.461Z,13.57
2017-10-24T01:10:57.051Z,13.45
2017-10-24T01:15:59.078Z,13.39
2017-10-24T01:21:01.107Z,13.33
2017-10-24T01:26:03.930Z,13.34
2017-10-24T01:31:05.964Z,13.33
2017-10-24T01:36:08.002Z,13.25
2017-10-24T01:41:10.075Z,13.29
2017-10-24T01:46:12.082Z,13.33
2017-10-24T01:51:14.117Z,13.38
2017-10-24T01:56:16.143Z,13.45
2017-10-24T02:01:18.183Z,13.53
2017-10-24T02:06:20.143Z,13.58
2017-10-24T02:11:22.154Z,13.49
2017-10-24T02:16:24.172Z,13.54
2017-10-24T02:21:26.220Z,13.61
2017-10-24T02:26:28.226Z,13.76
2017-10-24T02:31:30.200Z,13.82
2017-10-24T02:36:32.152Z,13.81
2017-10-24T02:41:34.179Z,13.87
2017-10-24T02:46:36.154Z,13.96
2017-10-24T02:51:38.230Z,14.00
2017-10-24T02:56:40.902Z,14.03
2017-10-24T03:01:42.851Z,13.97
2017-10-24T03:06:44.765Z,13.96
2017-10-24T03:11:47.602Z,14.00
2017-10-24T03:16:49.525Z,14.03
2017-10-24T03:21:51.503Z,14.07
2017-10-24T03:26:53.504Z,14.16
2017-10-24T03:31:56.171Z,14.12
2017-10-24T03:36:58.104Z,14.17
2017-10-24T03:42:00.037Z,14.21
2017-10-24T03:47:02.679Z,14.24
2017-10-24T03:52:04.683Z,14.22
2017-10-24T03:57:06.698Z,14.30
2017-10-24T04:02:08.635Z,14.37
2017-10-24T04:07:10.620Z,14.42
2017-10-24T04:12:12.591Z,14.47
2017-10-24T04:17:14.548Z,14.49
2017-10-24T04:22:16.537Z,14.53
2017-10-24T04:27:18.521Z,14.56
2017-10-24T04:32:20.516Z,14.64
2017-10-24T04:37:22.532Z,14.71
2017-10-24T04:42:24.447Z,14.75
2017-10-24T04:47:26.387Z,14.79
2017-10-24T04:52:28.398Z,14.80
2017-10-24T04:57:31.074Z,14.81
2017-10-24T05:02:33.028Z,14.83
2017-10-24T05:07:35.719Z,14.89
2017-10-24T05:12:37.634Z,14.94
2017-10-24T05:17:39.614Z,14.93
2017-10-24T05:22:41.564Z,15.02
2017-10-24T05:27:44.311Z,15.00
2017-10-24T05:32:47.173Z,15.06
2017-10-24T05:37:49.891Z,15.03
2017-10-24T05:42:53.987Z,15.09
2017-10-24T05:47:56.259Z,15.12
2017-10-24T05:52:58.315Z,15.12
2017-10-24T05:58:00.978Z,15.18
2017-10-24T06:03:02.968Z,15.19
2017-10-24T06:08:04.886Z,15.27
2017-10-24T06:13:06.800Z,15.24
2017-10-24T06:18:08.840Z,15.29
2017-10-24T06:23:10.823Z,15.29
2017-10-24T06:28:12.792Z,15.36
2017-10-24T06:33:14.701Z,15.40
2017-10-24T06:38:16.693Z,15.42
2017-10-24T06:43:18.673Z,15.53
2017-10-24T06:48:20.664Z,15.59
2017-10-24T06:53:23.379Z,15.66
2017-10-24T06:58:26.086Z,15.74
2017-10-24T07:03:28.075Z,15.87
2017-10-24T07:08:30.024Z,15.76
2017-10-24T07:13:32.787Z,15.84
2017-10-24T07:18:34.806Z,15.89
2017-10-24T07:23:36.779Z,15.99
2017-10-24T07:28:38.721Z,16.16
2017-10-24T07:33:40.656Z,16.18
2017-10-24T07:38:43.373Z,16.16
2017-10-24T07:43:46.064Z,16.23
2017-10-24T07:48:48.040Z,16.29
2017-10-24T07:53:49.999Z,16.27
2017-10-24T07:58:52.054Z,16.36
2017-10-24T08:03:53.999Z,16.35
2017-10-24T08:08:56.026Z,16.25
2017-10-24T08:13:58.060Z,16.25
2017-10-24T08:19:00.101Z,16.20
2017-10-24T08:24:02.056Z,16.08
2017-10-24T08:29:04.014Z,16.03
2017-10-24T08:34:05.948Z,16.06
2017-10-24T08:39:07.897Z,16.07
2017-10-24T08:44:13.866Z,16.06
2017-10-24T08:49:15.784Z,15.96
2017-10-24T08:54:17.986Z,16.00
2017-10-24T08:59:19.931Z,16.07
2017-10-24T09:04:21.933Z,16.17
2017-10-24T09:15:05.064Z,16.26
2017-10-24T09:20:09.744Z,16.37
2017-10-24T09:25:11.851Z,16.48
2017-10-24T09:30:19.062Z,16.60
2017-10-24T09:35:22.104Z,16.59
2017-10-24T09:40:24.094Z,16.64
2017-10-24T09:45:27.163Z,16.68
2017-10-24T09:50:29.423Z,16.78
2017-10-24T09:55:31.364Z,16.89
2017-10-24T10:00:33.399Z,16.86
2017-10-24T10:05:35.540Z,16.88
2017-10-24T10:10:37.527Z,17.05
2017-10-24T10:15:39.581Z,17.43
2017-10-24T10:20:41.607Z,17.47
2017-10-24T10:25:43.598Z,17.37
2017-10-24T10:30:45.877Z,17.35
2017-10-24T10:35:47.751Z,17.22
2017-10-24T10:40:50.429Z,17.37
2017-10-24T10:45:52.456Z,17.59
2017-10-24T10:50:54.411Z,17.64
2017-10-24T10:55:56.342Z,17.66
2017-10-24T11:00:58.322Z,17.64
2017-10-24T11:06:00.577Z,17.67
2017-10-24T11:11:02.506Z,17.77
2017-10-24T11:16:08.770Z,17.87
2017-10-24T11:21:11.031Z,17.98
2017-10-24T11:26:13.747Z,18.02
2017-10-24T11:31:15.679Z,18.22
2017-10-24T11:36:17.648Z,18.36
2017-10-24T11:41:20.318Z,18.38
2017-10-24T11:46:22.315Z,18.54
2017-10-24T11:51:24.270Z,18.96
2017-10-24T11:56:26.677Z,18.97
2017-10-24T12:01:28.796Z,18.72
2017-10-24T12:06:30.860Z,18.52
2017-10-24T12:11:32.801Z,18.53
2017-10-24T12:16:35.181Z,18.70
2017-10-24T12:21:37.108Z,18.72
2017-10-24T12:26:39.046Z,18.77
2017-10-24T12:31:40.979Z,18.71
2017-10-24T12:36:42.927Z,18.61
2017-10-24T12:41:45.014Z,18.59
2017-10-24T12:46:57.840Z,18.81
2017-10-24T12:51:59.992Z,19.02
2017-10-24T12:57:02.009Z,19.15
2017-10-24T13:02:04.050Z,19.18
2017-10-24T13:07:06.516Z,19.16
2017-10-24T13:12:08.480Z,19.20
2017-10-24T13:17:10.422Z,19.08
2017-10-24T13:22:12.409Z,19.06
2017-10-24T13:27:14.340Z,19.05
2017-10-24T13:32:16.313Z,19.06
2017-10-24T13:37:18.247Z,18.93
2017-10-24T13:42:20.163Z,18.92
2017-10-24T13:47:22.927Z,18.94
2017-10-24T13:52:24.887Z,18.87
2017-10-24T13:57:27.089Z,18.96
2017-10-24T14:02:29.071Z,18.97
2017-10-24T14:07:36.941Z,18.98
2017-10-24T14:12:38.898Z,18.92
2017-10-24T14:17:40.882Z,18.95
2017-10-24T14:22:42.947Z,18.96
2017-10-24T14:27:44.958Z,18.87
2017-10-24T14:32:46.889Z,18.87
2017-10-24T14:37:48.838Z,18.65
2017-10-24T14:42:50.788Z,18.74
2017-10-24T14:47:52.691Z,18.76
2017-10-24T14:52:55.364Z,18.84
2017-10-24T14:57:57.287Z,18.73
2017-10-24T15:02:59.192Z,18.44
2017-10-24T15:08:01.140Z,18.56
2017-10-24T15:13:03.112Z,18.56
2017-10-24T15:18:05.063Z,18.45
2017-10-24T15:23:07.104Z,18.47
2017-10-24T15:28:09.060Z,18.31
2017-10-24T15:33:11.056Z,18.40
2017-10-24T15:38:13.707Z,18.46
2017-10-24T15:43:16.233Z,18.38
2017-10-24T15:48:18.207Z,18.29
2017-10-24T15:53:20.940Z,18.30
2017-10-24T15:58:22.908Z,18.21
2017-10-24T16:03:24.882Z,18.05
2017-10-24T16:08:26.892Z,17.93
2017-10-24T16:13:28.845Z,17.93
2017-10-24T16:18:30.777Z,17.89
2017-10-24T16:23:32.692Z,17.72
2017-10-24T16:28:34.634Z,17.83
2017-10-24T16:33:36.735Z,17.67
2017-10-24T16:38:38.710Z,17.64
2017-10-24T16:43:40.661Z,17.66
2017-10-24T16:48:43.316Z,17.60
2017-10-24T16:53:45.255Z,17.68
2017-10-24T16:58:47.195Z,17.70
2017-10-24T17:03:49.115Z,17.71
2017-10-24T17:08:55.545Z,17.73
2017-10-24T17:14:03.827Z,17.73
2017-10-24T17:19:07.494Z,17.71
2017-10-24T17:24:09.563Z,17.70
2017-10-24T17:29:11.451Z,17.73
2017-10-24T17:34:13.411Z,17.83
2017-10-24T17:39:16.221Z,17.84
2017-10-24T17:44:22.416Z,17.85
2017-10-24T17:49:24.356Z,17.85
2017-10-24T17:54:27.086Z,17.93
2017-10-24T17:59:30.025Z,17.97
2017-10-24T18:04:31.975Z,18.01
2017-10-24T18:09:33.921Z,18.04
2017-10-24T18:14:35.933Z,18.10
2017-10-24T18:19:38.068Z,18.17
2017-10-24T18:24:40.412Z,18.11
2017-10-24T18:29:42.365Z,18.18
2017-10-24T18:34:44.313Z,18.15
2017-10-24T18:39:46.420Z,18.07
2017-10-24T18:44:48.318Z,18.12
2017-10-24T18:49:50.312Z,17.99
2017-10-24T18:54:52.285Z,18.14
2017-10-24T18:59:54.314Z,18.18
2017-10-24T19:04:56.351Z,18.10
2017-10-24T19:09:58.456Z,18.15
2017-10-24T19:15:00.899Z,18.12
2017-10-24T19:20:03.626Z,17.98
2017-10-24T19:25:05.550Z,18.09
2017-10-24T19:30:07.475Z,18.00
2017-10-24T19:35:09.434Z,18.09
2017-10-24T19:40:11.356Z,18.25
2017-10-24T19:45:13.367Z,18.23
2017-10-24T19:50:15.319Z,18.19
2017-10-24T19:55:17.231Z,18.15
2017-10-24T20:00:19.170Z,18.22
2017-10-24T20:05:21.075Z,18.24
2017-10-24T20:10:23.009Z,18.08
2017-10-24T20:15:24.970Z,18.13
2017-10-24T20:20:26.975Z,18.28
2017-10-24T20:25:28.942Z,18.27
2017-10-24T20:30:30.895Z,18.36
2017-10-24T20:35:32.818Z,18.52
2017-10-24T20:40:34.772Z,18.48
2017-10-24T20:45:37.476Z,18.59
2017-10-24T20:50:39.433Z,18.51
2017-10-24T20:55:41.408Z,18.43
2017-10-24T21:00:43.339Z,18.53
2017-10-24T21:05:45.253Z,18.58
2017-10-24T21:10:47.192Z,18.62
2017-10-24T21:15:49.108Z,18.59
2017-10-24T21:20:51.176Z,18.75
2017-10-24T21:25:53.127Z,18.75
2017-10-24T21:30:55.790Z,18.66
2017-10-24T21:35:57.704Z,18.82
2017-10-24T21:40:59.707Z,18.89
2017-10-24T21:46:01.641Z,18.99
2017-10-24T21:51:03.604Z,18.94
2017-10-24T21:56:05.706Z,18.99
2017-10-24T22:01:07.731Z,19.00
2017-10-24T22:06:09.677Z,19.03
2017-10-24T22:11:12.339Z,18.86
2017-10-24T22:16:14.277Z,18.86
2017-10-24T22:21:16.199Z,18.83
2017-10-24T22:26:18.149Z,18.76
2017-10-24T22:31:20.047Z,18.88
2017-10-24T22:36:21.973Z,18.90
2017-10-24T22:41:23.904Z,18.96
2017-10-24T22:46:25.867Z,18.96
2017-10-24T22:51:27.852Z,18.84
2017-10-24T22:56:29.792Z,18.74
2017-10-24T23:01:31.708Z,18.68
2017-10-24T23:06:33.650Z,18.62
2017-10-24T23:11:36.336Z,18.60
2017-10-24T23:16:38.277Z,18.57
2017-10-24T23:21:40.939Z,18.69
2017-10-24T23:26:42.883Z,18.63
2017-10-24T23:31:45.573Z,18.63
2017-10-24T23:36:47.503Z,18.59
2017-10-24T23:41:49.404Z,18.66
2017-10-24T23:46:51.349Z,18.68
2017-10-24T23:51:53.328Z,18.79
2017-10-24T23:56:55.983Z,18.86
